Time;durP1;ratioP1;P1;durP2;ratioP2;P2;SDS_P1;SDS_P2;PMS_P1;PMS_P2;Temp;Humidity;BMP_temperature;BMP_pressure;BME280_temperature;BME280_humidity;BME280_pressure;Samples;Min_cycle;Max_cycle;Signal;HPM_P1;HPM_P2
2022/06/08 04:32:29;;;;;;;20.33;16.07;;;16.60;99.90;;;;;;5014622;23;20855;-73
2022/06/08 04:34:57;;;;;;;18.93;15.90;;;16.70;99.90;;;;;;4935672;29;20454;-72
2022/06/08 04:37:22;;;;;;;19.63;14.50;;;16.70;99.90;;;;;;4935464;29;20182;-74
2022/06/08 04:39:48;;;;;;;21.03;15.07;;;16.80;99.90;;;;;;4935882;29;20498;-71
2022/06/08 04:42:14;;;;;;;16.67;14.37;;;16.80;99.90;;;;;;4935480;29;20614;-69
2022/06/08 04:44:39;;;;;;;22.97;13.80;;;16.80;99.90;;;;;;4935420;29;20257;-71
2022/06/08 04:47:05;;;;;;;16.23;14.53;;;16.80;99.90;;;;;;4935203;29;20858;-73
2022/06/08 04:49:31;;;;;;;20.20;13.30;;;16.90;99.90;;;;;;4935491;29;20187;-75
2022/06/08 04:51:57;;;;;;;17.00;13.13;;;16.90;99.90;;;;;;4934431;29;20433;-72
2022/06/08 04:54:22;;;;;;;16.17;13.00;;;17.00;99.90;;;;;;4934823;29;20187;-71
2022/06/08 04:56:48;;;;;;;17.67;12.20;;;17.00;99.90;;;;;;4935258;29;20183;-74
2022/06/08 04:59:14;;;;;;;14.13;11.00;;;17.00;99.90;;;;;;4935263;29;20175;-74
2022/06/08 05:01:39;;;;;;;13.90;10.53;;;17.10;99.90;;;;;;4935273;29;20431;-73
2022/06/08 05:04:05;;;;;;;14.90;11.67;;;17.10;99.90;;;;;;4934966;29;20222;-73
2022/06/08 05:06:30;;;;;;;16.53;10.90;;;17.10;99.90;;;;;;4935101;29;20326;-73
2022/06/08 05:08:56;;;;;;;14.03;11.20;;;17.10;99.90;;;;;;4935031;29;20182;-75
2022/06/08 05:11:28;;;;;;;11.13;10.00;;;17.10;99.90;;;;;;4935670;29;20175;-73
2022/06/08 05:13:54;;;;;;;13.77;9.87;;;17.20;99.90;;;;;;4935134;29;20183;-73
2022/06/08 05:16:19;;;;;;;14.13;11.50;;;17.30;99.90;;;;;;4941722;29;20956;-73
2022/06/08 05:18:45;;;;;;;14.50;9.67;;;17.30;99.90;;;;;;4947036;29;20602;-69
2022/06/08 05:21:10;;;;;;;12.27;9.30;;;17.30;99.90;;;;;;4954042;29;20181;-73
2022/06/08 05:23:39;;;;;;;11.77;9.03;;;17.30;99.90;;;;;;4954061;29;20213;-73
2022/06/08 05:26:05;;;;;;;14.03;9.03;;;17.30;99.90;;;;;;4953882;28;20185;-73
2022/06/08 05:28:30;;;;;;;10.23;8.77;;;17.40;99.90;;;;;;4954248;29;20816;-73
2022/06/08 05:30:56;;;;;;;12.33;9.37;;;17.40;99.90;;;;;;4953797;29;20229;-73
2022/06/08 05:33:24;;;;;;;10.63;9.07;;;17.50;99.90;;;;;;4953767;28;20229;-73
2022/06/08 05:35:50;;;;;;;10.93;8.47;;;17.50;99.90;;;;;;4945293;28;20478;-74
2022/06/08 05:38:16;;;;;;;13.87;7.83;;;17.60;99.90;;;;;;4950045;29;20473;-71
2022/06/08 05:40:41;;;;;;;10.60;8.10;;;17.70;99.90;;;;;;4952874;28;20468;-70
2022/06/08 05:43:08;;;;;;;12.13;8.63;;;17.60;99.90;;;;;;4954392;29;20466;-70
2022/06/08 05:45:35;;;;;;;9.80;8.00;;;17.70;99.90;;;;;;4953780;28;20188;-70
2022/06/08 05:48:01;;;;;;;12.20;7.23;;;17.70;99.90;;;;;;4954554;28;20427;-72
2022/06/08 05:50:28;;;;;;;13.03;6.90;;;17.70;99.90;;;;;;4954652;28;20433;-72
2022/06/08 05:52:54;;;;;;;7.33;6.10;;;17.70;99.90;;;;;;4954869;28;20918;-70
2022/06/08 05:55:21;;;;;;;6.93;5.40;;;17.80;99.90;;;;;;4954659;29;20422;-70
2022/06/08 05:57:46;;;;;;;6.30;5.73;;;17.90;99.90;;;;;;4954797;28;20197;-70
2022/06/08 06:00:16;;;;;;;6.63;6.00;;;17.90;99.90;;;;;;4954682;28;20917;-70
2022/06/08 06:02:43;;;;;;;10.73;6.50;;;18.00;99.90;;;;;;4953456;29;20273;-70
2022/06/08 06:05:10;;;;;;;11.33;5.90;;;18.00;99.90;;;;;;4954583;28;20517;-70
2022/06/08 06:07:37;;;;;;;5.27;4.73;;;18.10;99.90;;;;;;4957546;28;20434;-70
2022/06/08 06:10:03;;;;;;;8.23;5.00;;;18.10;99.90;;;;;;4958225;28;20461;-70
2022/06/08 06:12:32;;;;;;;6.87;5.20;;;18.10;99.90;;;;;;4958220;28;20434;-70
2022/06/08 06:15:01;;;;;;;9.33;4.60;;;18.10;99.90;;;;;;4958275;28;20442;-70
2022/06/08 06:17:27;;;;;;;7.57;4.83;;;18.20;99.90;;;;;;4958204;28;20836;-70
2022/06/08 06:19:52;;;;;;;4.20;3.80;;;18.30;99.90;;;;;;4958162;29;20430;-72
2022/06/08 06:22:18;;;;;;;5.60;3.93;;;18.30;99.90;;;;;;4957978;29;20776;-72
2022/06/08 06:24:44;;;;;;;4.43;4.00;;;18.40;99.90;;;;;;4957975;29;20226;-70
2022/06/08 06:27:09;;;;;;;7.20;4.57;;;18.30;99.90;;;;;;4957841;29;20184;-70
2022/06/08 06:29:35;;;;;;;4.13;3.10;;;18.30;99.90;;;;;;4958037;29;20182;-70
2022/06/08 06:32:07;;;;;;;4.33;3.00;;;18.40;99.90;;;;;;4957670;29;20222;-70
2022/06/08 06:34:33;;;;;;;4.53;3.40;;;18.50;99.90;;;;;;4957878;28;20186;-70
2022/06/08 06:36:59;;;;;;;3.10;2.80;;;18.50;99.90;;;;;;4957846;28;20473;-70
2022/06/08 06:39:28;;;;;;;6.57;2.67;;;18.60;99.90;;;;;;4957679;29;20438;-70
2022/06/08 06:41:55;;;;;;;4.30;2.80;;;18.70;99.90;;;;;;4957795;28;20190;-70
2022/06/08 06:44:21;;;;;;;4.30;2.87;;;18.60;99.90;;;;;;4957714;28;20481;-70
2022/06/08 06:46:47;;;;;;;4.87;2.97;;;18.70;99.90;;;;;;4957656;29;20426;-70
2022/06/08 06:49:13;;;;;;;4.27;3.00;;;18.70;99.90;;;;;;4957638;29;20525;-70
2022/06/08 06:51:39;;;;;;;3.33;2.97;;;18.70;99.90;;;;;;4957560;29;20174;-70
2022/06/08 06:54:06;;;;;;;4.97;2.57;;;18.80;99.90;;;;;;4957724;28;20182;-70
2022/06/08 06:56:32;;;;;;;3.50;2.57;;;18.70;99.90;;;;;;4957379;28;20430;-70
2022/06/08 06:58:59;;;;;;;2.90;2.40;;;18.70;99.90;;;;;;4957498;28;20430;-70
2022/06/08 07:01:24;;;;;;;7.10;2.73;;;18.70;99.90;;;;;;4957414;28;20434;-70
2022/06/08 07:03:50;;;;;;;3.47;3.17;;;18.80;99.90;;;;;;4957336;29;21019;-70
2022/06/08 07:06:16;;;;;;;3.00;2.30;;;18.90;99.90;;;;;;4957270;28;20183;-70
2022/06/08 07:08:41;;;;;;;6.67;2.30;;;19.00;99.90;;;;;;4957334;29;20265;-70
2022/06/08 07:13:52;;;;;;;2.90;2.30;;;19.20;99.90;;;;;;4957567;29;20318;-70
2022/06/08 07:16:17;;;;;;;3.00;2.20;;;19.30;99.90;;;;;;4956929;28;20976;-70
2022/06/08 07:18:43;;;;;;;3.13;2.03;;;19.40;99.90;;;;;;4957199;28;20289;-70
2022/06/08 07:21:10;;;;;;;3.20;2.57;;;19.40;99.90;;;;;;4956965;29;20183;-70
2022/06/08 07:23:36;;;;;;;5.97;2.43;;;19.50;99.90;;;;;;4957041;28;20218;-70
2022/06/08 07:26:01;;;;;;;2.43;2.27;;;19.70;99.90;;;;;;4956969;29;20917;-70
2022/06/08 07:28:28;;;;;;;3.20;2.50;;;19.80;99.90;;;;;;4956980;29;20561;-70
2022/06/08 07:30:54;;;;;;;2.13;1.93;;;19.90;99.90;;;;;;4956851;28;20535;-70
2022/06/08 07:33:19;;;;;;;5.20;2.00;;;20.00;99.90;;;;;;4956753;29;20929;-70
2022/06/08 07:35:46;;;;;;;3.80;3.50;;;19.90;99.90;;;;;;4956710;28;20171;-70
2022/06/08 07:38:11;;;;;;;1.80;1.70;;;20.00;99.90;;;;;;4956767;28;20170;-70
2022/06/08 07:40:37;;;;;;;2.50;1.83;;;20.00;99.90;;;;;;4956600;29;20426;-71
2022/06/08 07:43:03;;;;;;;2.03;1.93;;;20.00;99.90;;;;;;4956611;29;20212;-71
2022/06/08 07:45:28;;;;;;;4.00;2.17;;;20.10;99.90;;;;;;4956618;28;20183;-71
2022/06/08 07:50:38;;;;;;;2.13;1.60;;;20.40;99.90;;;;;;4956749;29;20591;-71
2022/06/08 07:53:03;;;;;;;1.80;1.70;;;20.40;99.90;;;;;;4956476;28;20442;-71
2022/06/08 07:55:29;;;;;;;3.30;1.90;;;20.40;99.90;;;;;;4956561;29;20189;-71
2022/06/08 07:57:54;;;;;;;2.43;1.50;;;20.50;99.90;;;;;;4956357;29;20643;-71
2022/06/08 08:00:21;;;;;;;3.73;2.40;;;20.60;99.90;;;;;;4956156;29;20221;-71
2022/06/08 08:02:47;;;;;;;1.60;1.50;;;20.70;99.90;;;;;;4956211;28;20183;-71
2022/06/08 08:05:17;;;;;;;3.77;3.00;;;20.70;99.90;;;;;;4956134;29;20438;-71
2022/06/08 08:07:43;;;;;;;4.17;1.90;;;20.70;99.90;;;;;;4956350;28;20178;-71
2022/06/08 08:10:14;;;;;;;2.17;1.87;;;20.70;99.90;;;;;;4956093;28;20430;-71
2022/06/08 08:12:40;;;;;;;3.20;1.47;;;20.70;99.90;;;;;;4956103;28;20548;-71
2022/06/08 08:15:08;;;;;;;3.50;1.50;;;20.80;99.90;;;;;;4956014;28;20430;-71
2022/06/08 08:17:35;;;;;;;2.17;1.80;;;20.80;99.90;;;;;;4955871;28;20190;-72
2022/06/08 08:20:07;;;;;;;2.30;1.40;;;20.90;99.90;;;;;;4955809;28;20445;-72
2022/06/08 08:22:33;;;;;;;2.30;1.40;;;20.90;99.90;;;;;;4955888;28;20536;-72
2022/06/08 08:24:58;;;;;;;2.57;1.67;;;20.80;99.90;;;;;;4955746;29;20520;-72
2022/06/08 08:27:24;;;;;;;1.97;1.47;;;20.70;99.90;;;;;;4955715;29;20273;-72
2022/06/08 08:29:50;;;;;;;1.63;1.50;;;20.70;99.90;;;;;;4955322;28;20190;-72
2022/06/08 08:32:16;;;;;;;2.23;1.60;;;20.80;99.90;;;;;;4955631;28;20658;-72
2022/06/08 08:34:41;;;;;;;1.40;1.30;;;20.70;99.90;;;;;;4955540;29;20477;-72
2022/06/08 08:37:07;;;;;;;3.10;1.90;;;20.70;99.90;;;;;;4955652;29;20214;-72
2022/06/08 08:39:32;;;;;;;5.33;1.50;;;20.80;99.90;;;;;;4955704;29;20170;-71
2022/06/08 08:44:51;;;;;;;1.60;1.40;;;20.90;99.90;;;;;;4955586;29;20220;-71
2022/06/08 08:47:34;;;;;;;1.40;1.10;;;21.10;99.90;;;;;;4955504;28;20426;-72
2022/06/08 08:50:18;;;;;;;2.27;1.60;;;21.20;99.90;;;;;;4955392;29;20920;-71
2022/06/08 08:52:51;;;;;;;3.30;1.37;;;21.30;99.90;;;;;;4955459;28;20914;-71
2022/06/08 08:55:20;;;;;;;1.30;1.20;;;21.30;99.90;;;;;;4955332;29;20862;-71
2022/06/08 08:58:10;;;;;;;3.43;1.90;;;21.40;99.90;;;;;;4955269;29;20440;-71
2022/06/08 09:00:48;;;;;;;3.00;1.20;;;21.40;99.90;;;;;;4955382;28;20437;-71
2022/06/08 09:03:40;;;;;;;3.50;1.10;;;21.40;99.90;;;;;;4955201;29;20469;-71
2022/06/08 09:06:14;;;;;;;4.17;1.37;;;21.40;99.90;;;;;;4955284;28;20521;-71
2022/06/08 09:08:41;;;;;;;1.33;0.90;;;21.40;99.90;;;;;;4955200;29;20444;-71
2022/06/08 09:11:14;;;;;;;1.60;1.20;;;21.50;99.90;;;;;;4955106;28;20453;-71
2022/06/08 09:13:47;;;;;;;2.00;1.33;;;21.60;99.90;;;;;;4955368;28;20429;-71
2022/06/08 09:16:29;;;;;;;3.57;1.30;;;21.70;99.90;;;;;;4955046;28;20436;-70
2022/06/08 09:18:55;;;;;;;1.70;1.10;;;21.80;99.90;;;;;;4955097;28;20433;-71
2022/06/08 09:21:29;;;;;;;3.77;1.57;;;22.00;99.90;;;;;;4955185;28;20484;-70
2022/06/08 09:24:21;;;;;;;2.00;1.70;;;22.10;99.90;;;;;;4955065;28;20557;-70
2022/06/08 09:26:47;;;;;;;1.77;1.17;;;22.20;99.90;;;;;;4955228;29;20420;-70
2022/06/08 09:29:17;;;;;;;1.57;1.47;;;22.20;99.90;;;;;;4954902;28;20769;-70
2022/06/08 09:31:44;;;;;;;2.73;1.23;;;22.20;99.90;;;;;;4954785;28;20462;-70
2022/06/08 09:34:16;;;;;;;2.10;1.23;;;22.40;99.90;;;;;;4954969;28;20505;-70
2022/06/08 09:36:42;;;;;;;2.87;1.33;;;22.50;99.90;;;;;;4954973;28;20438;-70
2022/06/08 09:39:20;;;;;;;6.90;2.00;;;22.60;99.90;;;;;;4954927;28;20437;-70
2022/06/08 09:41:51;;;;;;;2.60;1.60;;;22.50;99.90;;;;;;4956590;28;20428;-70
2022/06/08 09:44:28;;;;;;;1.67;1.27;;;22.50;99.90;;;;;;4958673;29;20487;-70
2022/06/08 09:53:10;;;;;;;4.40;1.73;;;22.80;99.90;;;;;;4958960;29;20505;-70
2022/06/08 09:55:55;;;;;;;3.20;1.23;;;22.70;99.90;;;;;;4958633;29;20836;-71
2022/06/08 09:58:24;;;;;;;2.17;1.60;;;22.80;99.90;;;;;;4958546;28;20421;-70
2022/06/08 10:01:10;;;;;;;2.50;1.50;;;22.90;99.90;;;;;;4958540;28;20757;-70
2022/06/08 10:04:06;;;;;;;6.30;2.07;;;22.90;99.90;;;;;;4958400;29;20469;-70
2022/06/08 10:06:43;;;;;;;2.33;1.30;;;22.70;99.90;;;;;;4958447;29;20489;-70
2022/06/08 10:09:21;;;;;;;1.90;1.27;;;22.80;99.90;;;;;;4958257;29;20840;-70
2022/06/08 10:12:06;;;;;;;1.27;1.10;;;22.70;99.90;;;;;;4958362;29;20432;-70
2022/06/08 10:14:45;;;;;;;2.63;1.30;;;22.70;99.90;;;;;;4958352;29;20544;-70
2022/06/08 10:17:30;;;;;;;2.60;1.13;;;22.80;99.90;;;;;;4958080;28;20430;-70
2022/06/08 10:20:15;;;;;;;3.63;1.13;;;22.80;99.90;;;;;;4958191;28;20883;-70
2022/06/08 10:22:49;;;;;;;3.17;1.20;;;22.70;99.90;;;;;;4958197;28;20488;-71
2022/06/08 10:25:15;;;;;;;2.40;1.40;;;22.70;99.90;;;;;;4957918;28;20449;-70
2022/06/08 10:27:51;;;;;;;3.30;1.17;;;22.70;99.90;;;;;;4957896;29;20428;-70
2022/06/08 10:30:28;;;;;;;2.13;1.40;;;22.90;99.90;;;;;;4957866;28;20252;-71
2022/06/08 10:33:11;;;;;;;5.80;1.57;;;22.80;99.90;;;;;;4957985;28;20934;-71
2022/06/08 10:35:43;;;;;;;4.60;1.30;;;22.90;99.90;;;;;;4957862;28;20925;-70
2022/06/08 10:38:21;;;;;;;3.07;1.83;;;22.80;99.90;;;;;;4957809;28;20581;-70
2022/06/08 10:40:46;;;;;;;2.43;1.40;;;22.80;99.90;;;;;;4957919;28;20553;-70
2022/06/08 10:43:29;;;;;;;3.67;1.57;;;22.90;99.90;;;;;;4957626;29;21040;-70
2022/06/08 10:46:04;;;;;;;3.10;1.50;;;23.00;99.90;;;;;;4957815;28;20182;-70
2022/06/08 10:48:48;;;;;;;2.30;1.00;;;23.00;99.90;;;;;;4957603;28;20425;-70
2022/06/08 10:51:13;;;;;;;1.70;1.10;;;22.90;99.90;;;;;;4957672;28;20821;-71
2022/06/08 10:56:34;;;;;;;2.20;1.40;;;23.10;99.90;;;;;;4957909;29;20685;-70
2022/06/08 10:59:08;;;;;;;8.53;1.60;;;23.10;99.90;;;;;;4957486;29;20449;-70
2022/06/08 11:01:56;;;;;;;2.30;1.00;;;23.10;99.90;;;;;;4957496;29;20457;-70
2022/06/08 11:04:29;;;;;;;1.53;1.00;;;22.90;99.90;;;;;;4957349;28;20520;-70
2022/06/08 11:06:57;;;;;;;4.83;1.47;;;22.80;99.90;;;;;;4957329;28;20433;-70
2022/06/08 11:09:32;;;;;;;2.33;0.97;;;22.90;99.90;;;;;;4957271;28;21390;-70
2022/06/08 11:12:27;;;;;;;5.37;1.50;;;22.90;99.90;;;;;;4957224;29;20929;-70
2022/06/08 11:14:57;;;;;;;4.80;1.40;;;23.00;99.90;;;;;;4957208;28;20798;-70
2022/06/08 11:17:33;;;;;;;3.23;1.30;;;23.20;99.90;;;;;;4957160;28;20792;-70
2022/06/08 11:20:04;;;;;;;3.53;1.50;;;23.10;99.90;;;;;;4957198;28;20446;-70
2022/06/08 11:22:36;;;;;;;2.57;1.27;;;23.10;99.90;;;;;;4957047;29;20438;-70
2022/06/08 11:25:05;;;;;;;1.53;1.10;;;23.10;99.90;;;;;;4956892;28;20553;-70
2022/06/08 11:27:35;;;;;;;2.43;1.27;;;23.10;99.90;;;;;;4957018;28;20850;-71
2022/06/08 11:30:22;;;;;;;2.30;1.60;;;23.10;99.90;;;;;;4957132;28;20457;-71
2022/06/08 11:32:51;;;;;;;4.23;1.77;;;23.10;99.90;;;;;;4957024;28;20833;-71
2022/06/08 11:35:46;;;;;;;1.93;1.13;;;22.90;99.90;;;;;;4956630;29;20430;-71
2022/06/08 11:38:27;;;;;;;5.07;1.70;;;22.70;99.90;;;;;;4956682;28;20434;-71
2022/06/08 11:41:15;;;;;;;5.07;1.70;;;22.70;99.90;;;;;;4956726;29;20418;-71
2022/06/08 11:43:41;;;;;;;5.23;2.30;;;22.40;99.90;;;;;;4956484;29;20485;-72
2022/06/08 11:46:24;;;;;;;8.93;3.30;;;22.00;99.90;;;;;;4956530;28;20434;-72
2022/06/08 11:48:51;;;;;;;8.13;2.50;;;22.00;99.90;;;;;;4956605;28;20428;-72
2022/06/08 11:51:45;;;;;;;3.63;1.83;;;21.80;99.90;;;;;;4956388;28;20461;-72
2022/06/08 11:54:17;;;;;;;2.50;2.30;;;21.60;99.90;;;;;;4950874;29;20481;-72
2022/06/08 11:57:12;;;;;;;3.40;1.67;;;21.40;99.90;;;;;;4956283;28;21004;-72
2022/06/08 11:59:41;;;;;;;4.03;1.50;;;21.40;99.90;;;;;;4956424;28;20832;-72
2022/06/08 12:02:18;;;;;;;9.77;1.90;;;21.20;99.90;;;;;;4956267;28;20430;-72
2022/06/08 12:04:47;;;;;;;2.50;1.57;;;21.10;99.90;;;;;;4955534;28;20881;-72
2022/06/08 12:07:41;;;;;;;6.37;1.67;;;21.10;99.90;;;;;;4956178;28;20474;-72
2022/06/08 12:10:13;;;;;;;3.47;1.10;;;21.10;99.90;;;;;;4956238;28;20441;-72
2022/06/08 12:12:43;;;;;;;6.90;1.77;;;21.10;99.90;;;;;;4956244;28;20505;-72
2022/06/08 12:15:28;;;;;;;2.53;1.50;;;21.10;99.90;;;;;;4956047;28;20430;-72
2022/06/08 12:17:54;;;;;;;3.90;1.80;;;21.10;99.90;;;;;;4954867;29;20995;-72
2022/06/08 12:20:37;;;;;;;6.20;2.30;;;21.10;99.90;;;;;;4955865;28;20875;-72
2022/06/08 12:23:03;;;;;;;5.03;2.10;;;21.00;99.90;;;;;;4955505;28;20429;-72
2022/06/08 12:25:31;;;;;;;4.57;2.30;;;20.90;99.90;;;;;;4955421;28;20740;-72
2022/06/08 12:28:15;;;;;;;3.20;1.80;;;20.90;99.90;;;;;;4955183;28;20425;-72
2022/06/08 12:30:43;;;;;;;3.83;2.13;;;20.90;99.90;;;;;;4955715;28;20465;-72
2022/06/08 12:33:18;;;;;;;3.27;1.63;;;20.70;99.90;;;;;;4955768;29;20800;-72
2022/06/08 12:35:52;;;;;;;3.30;1.97;;;20.70;99.90;;;;;;4955774;29;20589;-71
2022/06/08 12:38:22;;;;;;;7.07;2.20;;;20.40;99.90;;;;;;4955579;29;20433;-73
2022/06/08 12:41:09;;;;;;;5.93;2.43;;;20.10;99.90;;;;;;4955754;28;20422;-73
2022/06/08 12:44:06;;;;;;;4.37;2.97;;;19.90;99.90;;;;;;4955642;28;20478;-71
2022/06/08 12:46:34;;;;;;;3.40;2.77;;;19.80;99.90;;;;;;4955784;28;20433;-71
2022/06/08 12:49:19;;;;;;;8.93;2.47;;;19.60;99.90;;;;;;4955425;28;20475;-71
2022/06/08 12:51:55;;;;;;;5.33;2.83;;;19.40;99.90;;;;;;4955469;29;20433;-71
2022/06/08 12:54:32;;;;;;;7.50;2.60;;;19.30;99.90;;;;;;4955535;28;21133;-71
2022/06/08 12:57:18;;;;;;;5.37;2.23;;;19.20;99.90;;;;;;4955267;28;20908;-71
2022/06/08 12:59:46;;;;;;;9.80;3.23;;;19.00;99.90;;;;;;4955388;28;20430;-71
2022/06/08 13:02:18;;;;;;;4.13;2.70;;;18.90;99.90;;;;;;4955273;28;20791;-71
2022/06/08 13:04:44;;;;;;;7.47;3.13;;;18.90;99.90;;;;;;4955201;28;20481;-71
2022/06/08 13:07:17;;;;;;;6.97;3.27;;;18.80;99.90;;;;;;4955140;28;20422;-71
2022/06/08 13:09:44;;;;;;;12.80;3.70;;;18.80;99.90;;;;;;4955301;28;20521;-71
2022/06/08 13:12:13;;;;;;;4.13;2.77;;;18.70;99.90;;;;;;4955116;28;20437;-71
2022/06/08 13:14:41;;;;;;;6.50;2.60;;;18.70;99.90;;;;;;4955119;28;20513;-71
2022/06/08 13:17:06;;;;;;;4.93;2.97;;;18.70;99.90;;;;;;4954671;28;20993;-71
2022/06/08 13:19:33;;;;;;;5.90;2.93;;;18.70;99.90;;;;;;4943414;29;20518;-70
2022/06/08 13:21:58;;;;;;;3.20;2.83;;;18.70;99.90;;;;;;4955017;28;20174;-75
2022/06/08 13:24:24;;;;;;;5.37;2.87;;;18.60;99.90;;;;;;4955082;29;20988;-72
2022/06/08 13:26:49;;;;;;;3.53;2.97;;;18.60;99.90;;;;;;4945685;29;20270;-69
2022/06/08 13:29:20;;;;;;;6.90;3.00;;;18.60;99.90;;;;;;4943755;28;20273;-70
2022/06/08 13:31:47;;;;;;;6.57;3.53;;;18.70;99.90;;;;;;4944822;29;20273;-70
2022/06/08 13:34:13;;;;;;;5.67;3.43;;;18.60;99.90;;;;;;4943811;29;20454;-70
2022/06/08 13:36:52;;;;;;;7.17;3.73;;;18.50;99.90;;;;;;4951742;28;20426;-70
2022/06/08 13:39:31;;;;;;;5.17;4.10;;;18.50;99.90;;;;;;4954854;28;20513;-70
2022/06/08 13:42:11;;;;;;;6.83;3.70;;;18.60;99.90;;;;;;4954811;28;20449;-70
2022/06/08 13:44:41;;;;;;;5.90;3.30;;;18.60;99.90;;;;;;4948750;28;20485;-68
2022/06/08 13:47:14;;;;;;;5.00;3.50;;;18.60;99.90;;;;;;4942442;29;20561;-67
2022/06/08 13:49:44;;;;;;;9.57;3.70;;;18.60;99.90;;;;;;4944937;29;20438;-67
2022/06/08 13:52:13;;;;;;;8.60;4.60;;;18.60;99.90;;;;;;4944065;29;20423;-67
2022/06/08 13:54:42;;;;;;;10.33;5.10;;;18.60;99.90;;;;;;4943708;28;20441;-67
2022/06/08 13:57:11;;;;;;;8.83;4.03;;;18.60;99.90;;;;;;4944751;28;20437;-67
2022/06/08 13:59:38;;;;;;;8.57;4.50;;;18.60;99.90;;;;;;4945330;29;20439;-67
2022/06/08 14:02:18;;;;;;;5.40;4.00;;;18.60;99.90;;;;;;4941022;29;20437;-67
2022/06/08 14:04:45;;;;;;;6.43;4.10;;;18.60;99.90;;;;;;4940752;29;20474;-68
2022/06/08 14:13:00;;;;;;;6.00;4.67;;;18.50;99.90;;;;;;4944585;29;21043;-68
2022/06/08 14:15:27;;;;;;;9.43;4.80;;;18.50;99.90;;;;;;4941444;29;20443;-68
2022/06/08 14:17:54;;;;;;;9.20;3.70;;;18.50;99.90;;;;;;4943913;28;20774;-67
2022/06/08 14:20:25;;;;;;;7.50;5.03;;;18.50;99.90;;;;;;4944925;29;20426;-70
2022/06/08 14:22:50;;;;;;;8.50;4.27;;;18.50;99.90;;;;;;4943166;29;20522;-70
2022/06/08 14:25:16;;;;;;;10.40;4.53;;;18.50;99.90;;;;;;4942468;29;20521;-70
2022/06/08 14:27:42;;;;;;;9.63;4.27;;;18.50;99.90;;;;;;4946053;28;20630;-70
2022/06/08 14:30:13;;;;;;;5.40;3.43;;;18.40;99.90;;;;;;4946546;29;20265;-69
2022/06/08 14:32:46;;;;;;;8.20;3.67;;;18.40;99.90;;;;;;4949888;28;20238;-69
2022/06/08 14:35:30;;;;;;;4.50;3.50;;;18.40;99.90;;;;;;4947306;28;20813;-69
2022/06/08 14:37:57;;;;;;;6.20;3.00;;;18.40;99.90;;;;;;4938383;29;20454;-73
2022/06/08 14:40:34;;;;;;;6.80;3.30;;;18.40;99.90;;;;;;4934139;29;20443;-68
2022/06/08 14:43:02;;;;;;;10.93;4.97;;;18.50;99.90;;;;;;4938330;29;20580;-68
2022/06/08 14:45:27;;;;;;;7.63;3.80;;;18.50;99.90;;;;;;4933537;29;20933;-74
2022/06/08 14:47:53;;;;;;;10.40;4.27;;;18.50;99.90;;;;;;4951887;29;20493;-84
2022/06/08 14:50:25;;;;;;;7.90;4.13;;;18.50;99.90;;;;;;4942407;29;20269;-80
2022/06/08 14:52:52;;;;;;;3.63;3.03;;;18.50;99.90;;;;;;4948665;28;20310;-73
2022/06/08 14:58:06;;;;;;;6.60;3.43;;;18.60;99.90;;;;;;4941258;29;20517;-72
2022/06/08 15:00:32;;;;;;;4.40;2.77;;;18.60;99.90;;;;;;4951264;28;20798;-85
2022/06/08 15:02:57;;;;;;;8.37;3.70;;;18.70;99.90;;;;;;4946330;29;20437;-88
2022/06/08 15:05:24;;;;;;;6.73;2.80;;;18.70;99.90;;;;;;4944460;29;20447;-91
2022/06/08 15:07:50;;;;;;;8.93;4.07;;;18.70;99.90;;;;;;4953817;29;20566;-85
2022/06/08 15:10:17;;;;;;;3.40;2.70;;;18.80;99.90;;;;;;4941591;29;20442;-85
2022/06/08 15:12:46;;;;;;;9.23;3.20;;;18.90;99.90;;;;;;4949509;28;20175;-84
2022/06/08 15:15:22;;;;;;;7.00;2.97;;;18.90;99.90;;;;;;4948890;29;20438;-86
2022/06/08 15:17:49;;;;;;;7.23;2.77;;;18.90;99.90;;;;;;4940877;28;20430;-87
2022/06/08 15:20:22;;;;;;;5.47;2.70;;;18.90;99.90;;;;;;4952766;28;20499;-91
2022/06/08 15:22:50;;;;;;;5.57;3.20;;;18.90;99.90;;;;;;4944750;29;20441;-88
2022/06/08 15:25:20;;;;;;;4.30;2.43;;;19.00;99.90;;;;;;4944251;28;20855;-84
2022/06/08 15:27:51;;;;;;;5.60;2.33;;;19.00;99.90;;;;;;4945952;29;20427;-86
2022/06/08 15:30:30;;;;;;;6.17;2.70;;;19.00;99.90;;;;;;4937353;29;20938;-83
2022/06/08 15:32:56;;;;;;;5.13;2.40;;;19.00;99.90;;;;;;4934452;29;20442;-81
2022/06/08 15:35:22;;;;;;;4.27;2.37;;;19.00;99.90;;;;;;4933167;29;20432;-80
2022/06/08 15:37:52;;;;;;;5.83;2.63;;;18.80;99.90;;;;;;4931682;28;20183;-79
2022/06/08 15:40:25;;;;;;;4.53;2.40;;;18.90;99.90;;;;;;4933366;29;20449;-82
2022/06/08 15:42:52;;;;;;;10.40;3.00;;;18.80;99.90;;;;;;4933480;29;20435;-81
2022/06/08 15:45:18;;;;;;;3.40;3.00;;;18.80;99.90;;;;;;4932353;29;20476;-80
2022/06/08 15:47:47;;;;;;;4.37;2.23;;;18.90;99.90;;;;;;4931384;29;20435;-80
2022/06/08 15:50:24;;;;;;;3.93;2.33;;;18.90;99.90;;;;;;4933436;29;20734;-80
2022/06/08 15:52:52;;;;;;;5.47;2.83;;;18.80;99.90;;;;;;4933363;29;20941;-80
2022/06/08 15:55:26;;;;;;;3.23;2.87;;;18.80;99.90;;;;;;4932400;29;20432;-81
2022/06/08 15:57:55;;;;;;;3.80;2.70;;;18.80;99.90;;;;;;4923076;29;20530;-82
2022/06/08 16:00:25;;;;;;;2.93;2.40;;;18.80;99.90;;;;;;4918107;29;20432;-81
2022/06/08 16:02:54;;;;;;;8.23;3.37;;;18.70;99.90;;;;;;4918280;29;20483;-81
2022/06/08 16:05:19;;;;;;;8.93;2.90;;;18.70;99.90;;;;;;4918007;29;20952;-82
2022/06/08 16:07:45;;;;;;;5.60;3.60;;;18.60;99.90;;;;;;4918136;29;20441;-78
2022/06/08 16:10:14;;;;;;;3.83;2.87;;;18.60;99.90;;;;;;4951583;29;20197;-79
2022/06/08 16:12:39;;;;;;;4.57;3.17;;;18.60;99.90;;;;;;4956165;28;20426;-79
2022/06/08 16:15:06;;;;;;;4.00;2.43;;;18.50;99.90;;;;;;4955883;29;20440;-79
2022/06/08 16:17:31;;;;;;;4.80;2.80;;;18.50;99.90;;;;;;4956023;28;20193;-78
2022/06/08 16:19:57;;;;;;;5.00;2.87;;;18.40;99.90;;;;;;4954565;29;20437;-86
2022/06/08 16:22:23;;;;;;;4.83;2.57;;;18.40;99.90;;;;;;4955019;28;20179;-86
2022/06/08 16:24:49;;;;;;;3.43;2.53;;;18.40;99.90;;;;;;4955065;28;20337;-84
2022/06/08 16:27:15;;;;;;;3.90;2.30;;;18.30;99.90;;;;;;4953857;28;20179;-83
2022/06/08 16:29:41;;;;;;;3.43;2.53;;;18.30;99.90;;;;;;4935868;29;20454;-84
2022/06/08 16:32:07;;;;;;;4.73;2.43;;;18.20;99.90;;;;;;4935543;29;20568;-81
2022/06/08 16:34:33;;;;;;;5.30;2.50;;;18.20;99.90;;;;;;4935570;29;20794;-81
2022/06/08 16:36:59;;;;;;;2.80;2.47;;;18.10;99.90;;;;;;4935711;29;20194;-80
2022/06/08 16:39:26;;;;;;;5.93;3.30;;;18.20;99.90;;;;;;4935771;29;20431;-79
2022/06/08 16:41:52;;;;;;;4.23;3.43;;;18.20;99.90;;;;;;4935527;29;20190;-82
2022/06/08 16:44:21;;;;;;;5.83;3.00;;;18.20;99.90;;;;;;4935701;29;20987;-82
2022/06/08 16:46:48;;;;;;;2.33;2.00;;;18.10;99.90;;;;;;4935695;29;20442;-81
2022/06/08 16:49:14;;;;;;;11.13;2.70;;;18.10;99.90;;;;;;4935373;29;20450;-84
2022/06/08 16:51:39;;;;;;;5.47;2.90;;;18.10;99.90;;;;;;4934962;29;20427;-80
2022/06/08 16:54:05;;;;;;;2.50;2.23;;;18.10;99.90;;;;;;4935371;29;20187;-77
2022/06/08 17:01:59;;;;;;;5.43;1.83;;;18.20;99.90;;;;;;4947851;29;20441;-77
2022/06/08 17:04:25;;;;;;;6.23;2.50;;;18.30;99.90;;;;;;4954314;29;20466;-77
2022/06/08 17:06:52;;;;;;;1.97;1.83;;;18.40;99.90;;;;;;4954029;29;20210;-77
2022/06/08 17:09:18;;;;;;;3.77;2.60;;;18.30;99.90;;;;;;4954206;29;20326;-80
2022/06/08 17:11:47;;;;;;;8.10;2.73;;;18.30;99.90;;;;;;4954130;29;20512;-77
2022/06/08 17:14:17;;;;;;;9.40;3.20;;;18.40;99.90;;;;;;4954142;28;20188;-78
2022/06/08 17:16:44;;;;;;;2.80;2.60;;;18.40;99.90;;;;;;4954292;28;20424;-77
2022/06/08 17:19:11;;;;;;;3.07;2.37;;;18.40;99.90;;;;;;4954064;28;20585;-78
2022/06/08 17:21:37;;;;;;;2.70;2.50;;;18.30;99.90;;;;;;4953516;28;20434;-83
2022/06/08 17:24:03;;;;;;;5.73;2.37;;;18.40;99.90;;;;;;4939030;28;20203;-86
2022/06/08 17:26:30;;;;;;;3.33;3.03;;;18.40;99.90;;;;;;4936817;29;20494;-87
2022/06/08 17:28:55;;;;;;;3.10;2.10;;;18.30;99.90;;;;;;4936661;29;20948;-83
2022/06/08 17:31:21;;;;;;;3.20;2.20;;;18.20;99.90;;;;;;4935054;29;20475;-87
2022/06/08 17:33:48;;;;;;;3.87;3.20;;;18.20;99.90;;;;;;4935214;29;20198;-88
2022/06/08 17:36:14;;;;;;;8.23;2.70;;;18.10;99.90;;;;;;4934885;29;20179;-86
2022/06/08 17:38:40;;;;;;;2.43;2.23;;;18.10;99.90;;;;;;4934956;29;20833;-84
2022/06/08 17:41:05;;;;;;;4.10;2.57;;;18.00;99.90;;;;;;4934771;29;20686;-87
2022/06/08 17:43:31;;;;;;;4.30;2.40;;;18.00;99.90;;;;;;4934724;29;20557;-85
2022/06/08 17:45:56;;;;;;;6.40;3.00;;;18.00;99.90;;;;;;4934650;29;20186;-84
2022/06/08 17:48:22;;;;;;;4.20;2.17;;;17.80;99.90;;;;;;4934810;29;20179;-86
2022/06/08 17:50:48;;;;;;;4.13;2.30;;;17.80;99.90;;;;;;4934909;29;20187;-86
2022/06/08 17:53:14;;;;;;;3.00;2.70;;;17.80;99.90;;;;;;4934721;29;20175;-85
2022/06/08 17:55:40;;;;;;;5.87;3.20;;;17.80;99.90;;;;;;4934855;29;20179;-86
2022/06/08 17:58:07;;;;;;;3.47;2.37;;;17.70;99.90;;;;;;4934704;29;20187;-85
2022/06/08 18:00:34;;;;;;;4.57;2.40;;;17.60;99.90;;;;;;4934746;29;20431;-82
2022/06/08 18:03:00;;;;;;;2.87;2.00;;;17.50;99.90;;;;;;4936373;29;20474;-81